Terminal Aerodrome Forecast
Issued by NWS

Home | Current Version | Previous Version | Text Only | Print | Product List | Glossary On
Versions: 1 2 3 4 5 6 7 8 9 10 11 12 13 14 15 16 17 18 19 20 21 22 23
000
FTUS43 KDLH 192000 AAA
TAFBRD
TAF AMD
KBRD 192007Z 1920/2018 15005KT 1 1/2SM -SN BR OVC005
     FM192200 16005KT 4SM -SN BR OVC007
     FM200200 17003KT 4SM -SN BR OVC004
     FM201600 17005KT 4SM -SN BR OVC007=

USA.gov is the U.S. government's official web portal to all federal, state and local government web resources and services.